AirNav   Air Wisconsin pilot careers
 
 1017 users online  

NY1 Kline Kill Airport
Ghent, New York, USA

GOING TO GHENT?


FAA INFORMATION EFFECTIVE 08 NOVEMBER 2018

Location

FAA Identifier: NY1
Lat/Long: 42-21-00.3060N / 073-38-13.4270W
42-21.005100N / 073-38.223783W
42.3500850 / -73.6370631
(estimated)
Elevation: 380 ft. / 116 m (estimated)
Variation: 14W (1985)
From city: 2 miles N of GHENT, NY
Time zone: UTC -5 (UTC -4 during Daylight Saving Time)
Zip code: 12184

Airport Operations

Airport use: Open to the public
Activation date: 01/1947
Control tower: no
ARTCC: BOSTON CENTER
FSS: BURLINGTON FLIGHT SERVICE STATION
NOTAMs facility: BTV (NOTAM-D service available)
Attendance: UNATNDD
Wind indicator: yes
Segmented circle: no

Airport Communications

CTAF: 122.9
WX AWOS-3 at 1B1 (5 nm SW): 133.525 (518-828-2577)
WX ASOS at PSF (16 nm E): 135.375 (413-499-3273)

Nearby radio navigation aids

VOR radial/distance  VOR name  Freq  Var
ALBr176/24.9ALBANY VORTAC115.3013W
CTRr290/30.7CHESTER VOR/DME115.1013W
PWLr009/34.9PAWLING VOR/DME114.3012W

 
NDB name  Hdg/Dist  Freq  Var  ID
PHILMONT046/7.027213WPFH .--. ..-. ....
GREAT BARRINGTON328/14.439514WGBR --. -... .-.
HUNTER171/33.035614WHEU .... . ..-

Airport Services

Parking: hangars and tiedowns
Airframe service: MINOR
Powerplant service: MINOR
Bottled oxygen: NONE
Bulk oxygen: NONE

Runway Information

Runway 1/19

Dimensions: 4000 x 75 ft. / 1219 x 23 m
Surface: turf, in good condition
RUNWAY 1  RUNWAY 19
Traffic pattern: leftleft
Obstructions: 26 ft. trees, 96 ft. from runway, 70 ft. left of centerline, 3:1 slope to clear40 ft. pline, 100 ft. left of centerline

Airport Ownership and Management from official FAA records

Ownership: Privately-owned
Owner: KLINE KILL AIRPORT INC
PO BOX 271
CHATHAM, NY 12037
Phone 518-527-2762
ALTN CTC FOR ARPT CONDS CALL GEORGE KERNER AT (518) 527-2762.
Manager: GEORGE KERNER
PO BOX 271
CHATHAM, NY 12037
Phone 518-527-2762
OR PETER NELSON (518)392-2377

Airport Operational Statistics

Aircraft based on the field: 39
Single engine airplanes: 39
    
Aircraft operations: avg 75/month *
89% local general aviation
11% transient general aviation
* for 12-month period ending 24 July 2017

Additional Remarks

UNMKD TURF AREA ADJ TO RY MAY BE USED FOR TWY ON NORTH & SOUTH ENDS. TURF GRADES NEAR SOUTH PAVED APRON UNSUITABLE FOR ACFT MOVEMENT.
RY 19 HAS +16 FT ROAD, 22 FT FM RY, AT CNTRLN.

Instrument Procedures

There are no published instrument procedures at NY1.

Some nearby airports with instrument procedures:

1B1 - Columbia County Airport (5 nm SW)
KGBR - Walter J Koladza Airport (14 nm SE)
4B0 - South Albany Airport (15 nm NW)
KPSF - Pittsfield Municipal Airport (16 nm E)
KALB - Albany International Airport (25 nm N)
 
Loc | Ops | Rwys | IFR | FBO | Links
Com | Nav | Svcs | Stats | Notes


 
Area around NY1 (Kline Kill Airport)
 
Road maps at: MapQuest Bing Google
 
Aerial photo
WARNING: Photo may not be current or correct
Aerial photo of NY1 (Kline Kill Airport)
Do you have a better or more recent aerial photo of Kline Kill Airport that you would like to share? If so, please send us your photo.

 
Sectional chart

 
Airport distance calculator
Flying to Kline Kill Airport? Find the distance to fly.

From to NY1

Sunrise and sunset
Times for 17-Nov-2018
 Local
(UTC-5)
 Zulu
(UTC)
Morning civil twilight06:1811:18
Sunrise06:4911:49
Sunset16:3021:30
Evening civil twilight17:0122:01

Current date and time
Zulu (UTC)  17-Nov-2018 16:16:58
Local (UTC-5)  17-Nov-2018 11:16:58
 
METAR
KPSF 
16nm E 
171554Z AUTO 28009KT 10SM BKN031 OVC042 04/M02 A3004 RMK AO2 SLP179 T00391022
KALB 
25nm N 
171551Z 23004KT 10SM OVC037 06/M01 A3011 RMK AO2 SLP198 BINOVC DSNT SE-S SHRA DSNT N T00561011
20N 
26nm SW 
SuperAWOS
171555Z AUTO 31009G13KT 10SM 07/M03 A3012
KAQW 
30nm NE 
171552Z AUTO 28007KT 10SM OVC025 04/M01 A3007 RMK AO2 SLP190 T00391006
KSCH 
32nm N 
171445Z 30004KT 10SM OVC030 04/M01 A3008
TAF
KPSF 
16nm E 
171120Z 1712/1812 27010G20KT P6SM BKN020 OVC035 WS020/29030KT FM171600 28011G20KT P6SM BKN035 FM172300 VRB04KT P6SM BKN035
NOTAMs
Click for the latest NOTAMs
NOTAMs are issued by the DoD/FAA and will open in a separate window not controlled by AirNav.

 

 
 

Would you like to see your business listed on this page?

 If your business provides an interesting product or service to pilots, flight crews, aircraft, or users of the Kline Kill Airport, you should consider listing it here.  To start the listing process, click on the button below
 
Add a business
 

Other Pages about Kline Kill Airport

Update a link
 
Copyright © AirNav, LLC. All rights reserved. Privacy Policy  Contact